sensor_id;sensor_type;location;lat;lon;timestamp;P1;durP1;ratioP1;P2;durP2;ratioP2
16173;SDS011;14031;50.158;8.626;2024-01-30T00:01:52;21.03;;;14.97;;
16173;SDS011;14031;50.158;8.626;2024-01-30T00:04:18;19.83;;;14.60;;
16173;SDS011;14031;50.158;8.626;2024-01-30T00:06:45;21.83;;;15.53;;
16173;SDS011;14031;50.158;8.626;2024-01-30T00:09:13;19.73;;;14.27;;
16173;SDS011;14031;50.158;8.626;2024-01-30T00:11:40;20.80;;;14.80;;
16173;SDS011;14031;50.158;8.626;2024-01-30T00:14:07;20.33;;;14.63;;
16173;SDS011;14031;50.158;8.626;2024-01-30T00:16:33;21.77;;;13.87;;
16173;SDS011;14031;50.158;8.626;2024-01-30T00:19:00;20.60;;;14.03;;
16173;SDS011;14031;50.158;8.626;2024-01-30T00:21:27;21.20;;;13.30;;
16173;SDS011;14031;50.158;8.626;2024-01-30T00:23:54;19.73;;;13.47;;
16173;SDS011;14031;50.158;8.626;2024-01-30T00:26:22;20.90;;;13.63;;
16173;SDS011;14031;50.158;8.626;2024-01-30T00:28:49;17.83;;;13.63;;
16173;SDS011;14031;50.158;8.626;2024-01-30T00:31:16;20.80;;;13.53;;
16173;SDS011;14031;50.158;8.626;2024-01-30T00:33:42;16.47;;;12.83;;
16173;SDS011;14031;50.158;8.626;2024-01-30T00:36:09;18.43;;;12.90;;
16173;SDS011;14031;50.158;8.626;2024-01-30T00:38:36;21.27;;;13.97;;
16173;SDS011;14031;50.158;8.626;2024-01-30T00:41:03;19.73;;;13.40;;
16173;SDS011;14031;50.158;8.626;2024-01-30T00:43:32;20.03;;;13.33;;
16173;SDS011;14031;50.158;8.626;2024-01-30T00:45:58;18.00;;;13.67;;
16173;SDS011;14031;50.158;8.626;2024-01-30T00:48:25;20.90;;;13.57;;
16173;SDS011;14031;50.158;8.626;2024-01-30T00:50:52;21.30;;;13.50;;
16173;SDS011;14031;50.158;8.626;2024-01-30T00:53:19;15.70;;;12.10;;
16173;SDS011;14031;50.158;8.626;2024-01-30T00:55:46;18.60;;;12.87;;
16173;SDS011;14031;50.158;8.626;2024-01-30T00:58:13;18.27;;;13.00;;
16173;SDS011;14031;50.158;8.626;2024-01-30T01:00:41;19.77;;;12.83;;
16173;SDS011;14031;50.158;8.626;2024-01-30T01:03:08;17.03;;;12.80;;
16173;SDS011;14031;50.158;8.626;2024-01-30T01:05:35;19.00;;;13.00;;
16173;SDS011;14031;50.158;8.626;2024-01-30T01:08:02;18.53;;;12.80;;
16173;SDS011;14031;50.158;8.626;2024-01-30T01:10:29;18.40;;;12.80;;
16173;SDS011;14031;50.158;8.626;2024-01-30T01:12:56;17.40;;;12.70;;
16173;SDS011;14031;50.158;8.626;2024-01-30T01:15:22;17.83;;;12.40;;
16173;SDS011;14031;50.158;8.626;2024-01-30T01:17:51;16.67;;;12.07;;
16173;SDS011;14031;50.158;8.626;2024-01-30T01:20:17;16.40;;;12.03;;
16173;SDS011;14031;50.158;8.626;2024-01-30T01:22:44;15.53;;;12.43;;
16173;SDS011;14031;50.158;8.626;2024-01-30T01:25:11;16.30;;;12.30;;
16173;SDS011;14031;50.158;8.626;2024-01-30T01:27:38;15.87;;;11.90;;
16173;SDS011;14031;50.158;8.626;2024-01-30T01:30:07;14.93;;;11.40;;
16173;SDS011;14031;50.158;8.626;2024-01-30T01:32:35;13.63;;;12.17;;
16173;SDS011;14031;50.158;8.626;2024-01-30T01:35:05;18.17;;;11.77;;
16173;SDS011;14031;50.158;8.626;2024-01-30T01:37:32;16.23;;;11.43;;
16173;SDS011;14031;50.158;8.626;2024-01-30T01:39:59;17.20;;;11.93;;
16173;SDS011;14031;50.158;8.626;2024-01-30T01:42:26;20.10;;;12.10;;
16173;SDS011;14031;50.158;8.626;2024-01-30T01:44:53;15.67;;;11.20;;
16173;SDS011;14031;50.158;8.626;2024-01-30T01:47:19;14.60;;;11.47;;
16173;SDS011;14031;50.158;8.626;2024-01-30T01:49:46;15.80;;;11.53;;
16173;SDS011;14031;50.158;8.626;2024-01-30T01:52:15;16.93;;;11.07;;
16173;SDS011;14031;50.158;8.626;2024-01-30T01:54:43;14.17;;;10.63;;
16173;SDS011;14031;50.158;8.626;2024-01-30T01:57:09;13.13;;;10.37;;
16173;SDS011;14031;50.158;8.626;2024-01-30T01:59:36;12.90;;;10.03;;
16173;SDS011;14031;50.158;8.626;2024-01-30T02:02:03;14.10;;;10.60;;
16173;SDS011;14031;50.158;8.626;2024-01-30T02:04:32;12.90;;;11.00;;
16173;SDS011;14031;50.158;8.626;2024-01-30T02:06:59;14.50;;;10.37;;
16173;SDS011;14031;50.158;8.626;2024-01-30T02:09:28;13.60;;;11.07;;
16173;SDS011;14031;50.158;8.626;2024-01-30T02:11:54;15.93;;;10.93;;
16173;SDS011;14031;50.158;8.626;2024-01-30T02:14:21;16.83;;;11.47;;
16173;SDS011;14031;50.158;8.626;2024-01-30T02:16:48;15.50;;;11.10;;
16173;SDS011;14031;50.158;8.626;2024-01-30T02:19:15;13.17;;;10.20;;
16173;SDS011;14031;50.158;8.626;2024-01-30T02:21:43;15.67;;;10.83;;
16173;SDS011;14031;50.158;8.626;2024-01-30T02:24:11;17.07;;;10.90;;
16173;SDS011;14031;50.158;8.626;2024-01-30T02:26:37;16.27;;;10.43;;
16173;SDS011;14031;50.158;8.626;2024-01-30T02:29:04;12.03;;;10.73;;
16173;SDS011;14031;50.158;8.626;2024-01-30T02:31:31;12.17;;;10.37;;
16173;SDS011;14031;50.158;8.626;2024-01-30T02:33:57;12.40;;;9.97;;
16173;SDS011;14031;50.158;8.626;2024-01-30T02:36:24;11.27;;;10.07;;
16173;SDS011;14031;50.158;8.626;2024-01-30T02:38:52;15.00;;;10.33;;
16173;SDS011;14031;50.158;8.626;2024-01-30T02:41:19;13.83;;;10.33;;
16173;SDS011;14031;50.158;8.626;2024-01-30T02:43:46;11.87;;;10.33;;
16173;SDS011;14031;50.158;8.626;2024-01-30T02:46:13;12.77;;;10.23;;
16173;SDS011;14031;50.158;8.626;2024-01-30T02:48:40;13.83;;;9.77;;
16173;SDS011;14031;50.158;8.626;2024-01-30T02:51:06;13.03;;;9.80;;
16173;SDS011;14031;50.158;8.626;2024-01-30T02:53:32;12.90;;;10.20;;
16173;SDS011;14031;50.158;8.626;2024-01-30T02:56:02;11.67;;;9.67;;
16173;SDS011;14031;50.158;8.626;2024-01-30T02:58:30;17.00;;;10.57;;
16173;SDS011;14031;50.158;8.626;2024-01-30T03:00:57;10.90;;;9.17;;
16173;SDS011;14031;50.158;8.626;2024-01-30T03:03:24;10.50;;;9.30;;
16173;SDS011;14031;50.158;8.626;2024-01-30T03:05:51;16.83;;;10.37;;
16173;SDS011;14031;50.158;8.626;2024-01-30T03:08:17;12.20;;;10.27;;
16173;SDS011;14031;50.158;8.626;2024-01-30T03:10:44;12.53;;;9.70;;
16173;SDS011;14031;50.158;8.626;2024-01-30T03:13:12;14.73;;;10.47;;
16173;SDS011;14031;50.158;8.626;2024-01-30T03:15:39;13.17;;;9.93;;
16173;SDS011;14031;50.158;8.626;2024-01-30T03:18:06;11.90;;;9.60;;
16173;SDS011;14031;50.158;8.626;2024-01-30T03:20:32;11.93;;;9.73;;
16173;SDS011;14031;50.158;8.626;2024-01-30T03:22:59;14.17;;;10.20;;
16173;SDS011;14031;50.158;8.626;2024-01-30T03:25:26;11.27;;;9.90;;
16173;SDS011;14031;50.158;8.626;2024-01-30T03:27:53;11.87;;;9.97;;
16173;SDS011;14031;50.158;8.626;2024-01-30T03:30:21;11.77;;;9.97;;
16173;SDS011;14031;50.158;8.626;2024-01-30T03:32:48;14.83;;;10.60;;
16173;SDS011;14031;50.158;8.626;2024-01-30T03:35:15;14.23;;;9.93;;
16173;SDS011;14031;50.158;8.626;2024-01-30T03:37:42;18.57;;;10.47;;
16173;SDS011;14031;50.158;8.626;2024-01-30T03:40:09;12.17;;;9.83;;
16173;SDS011;14031;50.158;8.626;2024-01-30T03:42:36;13.53;;;10.77;;
16173;SDS011;14031;50.158;8.626;2024-01-30T03:45:03;10.83;;;9.73;;
16173;SDS011;14031;50.158;8.626;2024-01-30T03:47:32;15.03;;;10.67;;
16173;SDS011;14031;50.158;8.626;2024-01-30T03:49:58;12.53;;;10.17;;
16173;SDS011;14031;50.158;8.626;2024-01-30T03:52:25;14.40;;;10.80;;
16173;SDS011;14031;50.158;8.626;2024-01-30T03:54:52;12.00;;;10.03;;
16173;SDS011;14031;50.158;8.626;2024-01-30T03:57:19;14.70;;;10.80;;
16173;SDS011;14031;50.158;8.626;2024-01-30T03:59:46;13.27;;;9.90;;
16173;SDS011;14031;50.158;8.626;2024-01-30T04:02:13;14.30;;;10.63;;
16173;SDS011;14031;50.158;8.626;2024-01-30T04:04:41;16.57;;;11.23;;
16173;SDS011;14031;50.158;8.626;2024-01-30T04:07:07;15.47;;;10.63;;
16173;SDS011;14031;50.158;8.626;2024-01-30T04:09:34;12.33;;;10.30;;
16173;SDS011;14031;50.158;8.626;2024-01-30T04:12:01;13.13;;;10.30;;
16173;SDS011;14031;50.158;8.626;2024-01-30T04:14:28;11.33;;;10.07;;
16173;SDS011;14031;50.158;8.626;2024-01-30T04:16:55;14.20;;;10.43;;
16173;SDS011;14031;50.158;8.626;2024-01-30T04:19:22;16.00;;;10.70;;
16173;SDS011;14031;50.158;8.626;2024-01-30T04:21:50;11.50;;;10.13;;
16173;SDS011;14031;50.158;8.626;2024-01-30T04:24:17;14.77;;;10.77;;
16173;SDS011;14031;50.158;8.626;2024-01-30T04:26:43;13.20;;;10.00;;
16173;SDS011;14031;50.158;8.626;2024-01-30T04:29:10;12.17;;;9.97;;
16173;SDS011;14031;50.158;8.626;2024-01-30T04:31:37;14.57;;;10.30;;
16173;SDS011;14031;50.158;8.626;2024-01-30T04:34:04;10.77;;;9.70;;
16173;SDS011;14031;50.158;8.626;2024-01-30T04:36:31;11.00;;;9.90;;
16173;SDS011;14031;50.158;8.626;2024-01-30T04:38:59;13.63;;;10.30;;
16173;SDS011;14031;50.158;8.626;2024-01-30T04:41:25;11.37;;;10.20;;
16173;SDS011;14031;50.158;8.626;2024-01-30T04:43:56;12.17;;;10.37;;
16173;SDS011;14031;50.158;8.626;2024-01-30T04:46:23;10.00;;;9.00;;
16173;SDS011;14031;50.158;8.626;2024-01-30T04:48:49;14.67;;;10.37;;
16173;SDS011;14031;50.158;8.626;2024-01-30T04:51:16;13.03;;;10.07;;
16173;SDS011;14031;50.158;8.626;2024-01-30T04:53:43;12.37;;;11.07;;
16173;SDS011;14031;50.158;8.626;2024-01-30T04:56:11;15.93;;;10.90;;
16173;SDS011;14031;50.158;8.626;2024-01-30T04:58:38;13.00;;;10.00;;
16173;SDS011;14031;50.158;8.626;2024-01-30T05:01:04;12.43;;;10.63;;
16173;SDS011;14031;50.158;8.626;2024-01-30T05:03:32;11.60;;;10.40;;
16173;SDS011;14031;50.158;8.626;2024-01-30T05:06:00;14.80;;;10.70;;
16173;SDS011;14031;50.158;8.626;2024-01-30T05:08:26;13.20;;;10.60;;
16173;SDS011;14031;50.158;8.626;2024-01-30T05:10:53;11.93;;;10.10;;
16173;SDS011;14031;50.158;8.626;2024-01-30T05:13:21;14.20;;;10.07;;
16173;SDS011;14031;50.158;8.626;2024-01-30T05:15:48;14.83;;;10.43;;
16173;SDS011;14031;50.158;8.626;2024-01-30T05:18:15;15.80;;;10.73;;
16173;SDS011;14031;50.158;8.626;2024-01-30T05:20:41;14.10;;;10.33;;
16173;SDS011;14031;50.158;8.626;2024-01-30T05:23:08;14.50;;;10.00;;
16173;SDS011;14031;50.158;8.626;2024-01-30T05:25:35;12.80;;;10.13;;
16173;SDS011;14031;50.158;8.626;2024-01-30T05:28:02;14.30;;;11.17;;
16173;SDS011;14031;50.158;8.626;2024-01-30T05:30:30;14.17;;;11.00;;
16173;SDS011;14031;50.158;8.626;2024-01-30T05:32:57;18.00;;;11.97;;
16173;SDS011;14031;50.158;8.626;2024-01-30T05:35:23;17.47;;;12.10;;
16173;SDS011;14031;50.158;8.626;2024-01-30T05:37:50;17.20;;;11.93;;
16173;SDS011;14031;50.158;8.626;2024-01-30T05:40:17;16.50;;;11.63;;
16173;SDS011;14031;50.158;8.626;2024-01-30T05:42:44;13.57;;;10.70;;
16173;SDS011;14031;50.158;8.626;2024-01-30T05:45:11;15.17;;;11.53;;
16173;SDS011;14031;50.158;8.626;2024-01-30T05:47:39;16.27;;;10.53;;
16173;SDS011;14031;50.158;8.626;2024-01-30T05:50:06;14.57;;;11.50;;
16173;SDS011;14031;50.158;8.626;2024-01-30T05:52:33;13.57;;;11.53;;
16173;SDS011;14031;50.158;8.626;2024-01-30T05:55:00;16.73;;;11.77;;
16173;SDS011;14031;50.158;8.626;2024-01-30T05:57:27;14.70;;;11.40;;
16173;SDS011;14031;50.158;8.626;2024-01-30T05:59:54;14.50;;;11.47;;
16173;SDS011;14031;50.158;8.626;2024-01-30T06:02:21;17.50;;;10.97;;
16173;SDS011;14031;50.158;8.626;2024-01-30T06:04:49;16.60;;;11.10;;
16173;SDS011;14031;50.158;8.626;2024-01-30T06:07:15;13.37;;;11.00;;
16173;SDS011;14031;50.158;8.626;2024-01-30T06:09:42;17.00;;;10.93;;
16173;SDS011;14031;50.158;8.626;2024-01-30T06:12:10;13.77;;;10.83;;
16173;SDS011;14031;50.158;8.626;2024-01-30T06:14:37;15.23;;;11.27;;
16173;SDS011;14031;50.158;8.626;2024-01-30T06:17:04;14.87;;;10.97;;
16173;SDS011;14031;50.158;8.626;2024-01-30T06:19:31;15.87;;;11.50;;
16173;SDS011;14031;50.158;8.626;2024-01-30T06:21:59;13.20;;;11.37;;
16173;SDS011;14031;50.158;8.626;2024-01-30T06:24:29;16.97;;;12.27;;
16173;SDS011;14031;50.158;8.626;2024-01-30T06:26:55;15.60;;;10.87;;
16173;SDS011;14031;50.158;8.626;2024-01-30T06:29:22;15.80;;;11.60;;
16173;SDS011;14031;50.158;8.626;2024-01-30T06:31:49;15.97;;;11.73;;
16173;SDS011;14031;50.158;8.626;2024-01-30T06:34:16;15.77;;;11.67;;
16173;SDS011;14031;50.158;8.626;2024-01-30T06:36:43;15.83;;;11.60;;
16173;SDS011;14031;50.158;8.626;2024-01-30T06:39:11;15.63;;;11.83;;
16173;SDS011;14031;50.158;8.626;2024-01-30T06:41:38;14.73;;;12.20;;
16173;SDS011;14031;50.158;8.626;2024-01-30T06:44:05;18.93;;;12.43;;
16173;SDS011;14031;50.158;8.626;2024-01-30T06:46:33;17.60;;;12.40;;
16173;SDS011;14031;50.158;8.626;2024-01-30T06:49:00;19.17;;;12.17;;
16173;SDS011;14031;50.158;8.626;2024-01-30T06:51:26;14.37;;;11.60;;
16173;SDS011;14031;50.158;8.626;2024-01-30T06:53:53;19.03;;;12.20;;
16173;SDS011;14031;50.158;8.626;2024-01-30T06:56:21;16.27;;;12.00;;
16173;SDS011;14031;50.158;8.626;2024-01-30T06:58:48;17.53;;;12.03;;
16173;SDS011;14031;50.158;8.626;2024-01-30T07:01:15;16.20;;;11.97;;
16173;SDS011;14031;50.158;8.626;2024-01-30T07:03:42;16.97;;;12.27;;
16173;SDS011;14031;50.158;8.626;2024-01-30T07:06:09;16.47;;;12.43;;
16173;SDS011;14031;50.158;8.626;2024-01-30T07:08:37;17.63;;;12.37;;
16173;SDS011;14031;50.158;8.626;2024-01-30T07:11:04;17.97;;;12.47;;
16173;SDS011;14031;50.158;8.626;2024-01-30T07:13:32;17.27;;;13.33;;
16173;SDS011;14031;50.158;8.626;2024-01-30T07:16:00;15.67;;;13.03;;
16173;SDS011;14031;50.158;8.626;2024-01-30T07:18:27;19.80;;;13.43;;
16173;SDS011;14031;50.158;8.626;2024-01-30T07:20:53;23.27;;;14.53;;
16173;SDS011;14031;50.158;8.626;2024-01-30T07:23:20;20.80;;;14.80;;
16173;SDS011;14031;50.158;8.626;2024-01-30T07:25:47;17.00;;;14.30;;
16173;SDS011;14031;50.158;8.626;2024-01-30T07:28:14;20.03;;;14.77;;
16173;SDS011;14031;50.158;8.626;2024-01-30T07:30:44;23.43;;;14.53;;
16173;SDS011;14031;50.158;8.626;2024-01-30T07:33:10;22.23;;;15.57;;
16173;SDS011;14031;50.158;8.626;2024-01-30T07:35:37;21.10;;;14.87;;
16173;SDS011;14031;50.158;8.626;2024-01-30T07:38:04;20.77;;;15.30;;
16173;SDS011;14031;50.158;8.626;2024-01-30T07:40:30;23.20;;;15.83;;
16173;SDS011;14031;50.158;8.626;2024-01-30T07:42:58;29.23;;;15.60;;
16173;SDS011;14031;50.158;8.626;2024-01-30T07:45:25;20.87;;;15.37;;
16173;SDS011;14031;50.158;8.626;2024-01-30T07:47:58;18.13;;;14.40;;
16173;SDS011;14031;50.158;8.626;2024-01-30T07:50:25;25.13;;;15.13;;
16173;SDS011;14031;50.158;8.626;2024-01-30T07:52:52;21.37;;;13.67;;
16173;SDS011;14031;50.158;8.626;2024-01-30T07:55:19;22.43;;;14.30;;
16173;SDS011;14031;50.158;8.626;2024-01-30T07:57:49;21.97;;;14.93;;
16173;SDS011;14031;50.158;8.626;2024-01-30T08:00:16;20.77;;;13.80;;
16173;SDS011;14031;50.158;8.626;2024-01-30T08:02:44;20.47;;;14.83;;
16173;SDS011;14031;50.158;8.626;2024-01-30T08:05:12;23.67;;;14.63;;
16173;SDS011;14031;50.158;8.626;2024-01-30T08:07:40;24.13;;;15.40;;
16173;SDS011;14031;50.158;8.626;2024-01-30T08:10:07;22.27;;;15.43;;
16173;SDS011;14031;50.158;8.626;2024-01-30T08:12:34;23.57;;;15.63;;
16173;SDS011;14031;50.158;8.626;2024-01-30T08:15:01;22.33;;;14.57;;
16173;SDS011;14031;50.158;8.626;2024-01-30T08:17:28;24.33;;;15.33;;
16173;SDS011;14031;50.158;8.626;2024-01-30T08:19:55;23.70;;;15.53;;
16173;SDS011;14031;50.158;8.626;2024-01-30T08:22:23;20.90;;;15.50;;
16173;SDS011;14031;50.158;8.626;2024-01-30T08:24:49;20.90;;;16.03;;
16173;SDS011;14031;50.158;8.626;2024-01-30T08:27:16;24.60;;;16.47;;
16173;SDS011;14031;50.158;8.626;2024-01-30T08:29:43;27.10;;;15.97;;
16173;SDS011;14031;50.158;8.626;2024-01-30T08:32:10;26.30;;;16.53;;
16173;SDS011;14031;50.158;8.626;2024-01-30T08:34:36;25.27;;;16.40;;
16173;SDS011;14031;50.158;8.626;2024-01-30T08:37:03;22.43;;;15.50;;
16173;SDS011;14031;50.158;8.626;2024-01-30T08:39:31;26.90;;;15.27;;
16173;SDS011;14031;50.158;8.626;2024-01-30T08:41:58;21.13;;;14.77;;
16173;SDS011;14031;50.158;8.626;2024-01-30T08:44:25;19.67;;;14.33;;
16173;SDS011;14031;50.158;8.626;2024-01-30T08:46:52;24.43;;;15.50;;
16173;SDS011;14031;50.158;8.626;2024-01-30T08:49:19;21.37;;;14.80;;
16173;SDS011;14031;50.158;8.626;2024-01-30T08:51:46;21.70;;;15.07;;
16173;SDS011;14031;50.158;8.626;2024-01-30T08:54:13;23.03;;;14.83;;
16173;SDS011;14031;50.158;8.626;2024-01-30T08:56:41;25.17;;;15.97;;
16173;SDS011;14031;50.158;8.626;2024-01-30T08:59:08;25.40;;;15.00;;
16173;SDS011;14031;50.158;8.626;2024-01-30T09:01:35;21.23;;;15.43;;
16173;SDS011;14031;50.158;8.626;2024-01-30T09:04:02;22.90;;;15.23;;
16173;SDS011;14031;50.158;8.626;2024-01-30T09:06:29;20.23;;;15.27;;
16173;SDS011;14031;50.158;8.626;2024-01-30T09:08:56;20.83;;;15.30;;
16173;SDS011;14031;50.158;8.626;2024-01-30T09:11:23;19.80;;;14.67;;
16173;SDS011;14031;50.158;8.626;2024-01-30T09:13:51;21.13;;;15.57;;
16173;SDS011;14031;50.158;8.626;2024-01-30T09:16:18;23.73;;;15.43;;
16173;SDS011;14031;50.158;8.626;2024-01-30T09:18:45;21.20;;;14.63;;
16173;SDS011;14031;50.158;8.626;2024-01-30T09:21:12;19.17;;;14.73;;
16173;SDS011;14031;50.158;8.626;2024-01-30T09:23:38;19.23;;;14.93;;
16173;SDS011;14031;50.158;8.626;2024-01-30T09:26:05;26.93;;;15.93;;
16173;SDS011;14031;50.158;8.626;2024-01-30T09:28:32;26.67;;;16.07;;
16173;SDS011;14031;50.158;8.626;2024-01-30T09:31:00;31.60;;;17.77;;
16173;SDS011;14031;50.158;8.626;2024-01-30T09:33:27;26.37;;;17.33;;
16173;SDS011;14031;50.158;8.626;2024-01-30T09:35:54;24.00;;;15.93;;
16173;SDS011;14031;50.158;8.626;2024-01-30T09:38:21;25.73;;;16.17;;
16173;SDS011;14031;50.158;8.626;2024-01-30T09:40:49;20.87;;;16.37;;
16173;SDS011;14031;50.158;8.626;2024-01-30T09:43:21;24.43;;;15.37;;
16173;SDS011;14031;50.158;8.626;2024-01-30T09:45:49;20.43;;;15.80;;
16173;SDS011;14031;50.158;8.626;2024-01-30T09:48:18;20.53;;;15.73;;
16173;SDS011;14031;50.158;8.626;2024-01-30T09:50:45;24.70;;;15.30;;
16173;SDS011;14031;50.158;8.626;2024-01-30T09:53:12;21.17;;;14.87;;
16173;SDS011;14031;50.158;8.626;2024-01-30T09:55:40;18.10;;;14.73;;
16173;SDS011;14031;50.158;8.626;2024-01-30T09:58:09;20.70;;;15.93;;
16173;SDS011;14031;50.158;8.626;2024-01-30T10:00:36;22.37;;;14.80;;
16173;SDS011;14031;50.158;8.626;2024-01-30T10:03:03;20.57;;;15.20;;
16173;SDS011;14031;50.158;8.626;2024-01-30T10:05:32;24.33;;;14.77;;
16173;SDS011;14031;50.158;8.626;2024-01-30T10:08:05;18.73;;;15.73;;
16173;SDS011;14031;50.158;8.626;2024-01-30T10:10:33;21.93;;;15.03;;
16173;SDS011;14031;50.158;8.626;2024-01-30T10:12:59;22.90;;;15.83;;
16173;SDS011;14031;50.158;8.626;2024-01-30T10:15:26;18.97;;;14.63;;
16173;SDS011;14031;50.158;8.626;2024-01-30T10:17:54;25.70;;;14.83;;
16173;SDS011;14031;50.158;8.626;2024-01-30T10:20:21;20.33;;;14.83;;
16173;SDS011;14031;50.158;8.626;2024-01-30T10:32:41;19.57;;;14.13;;
16173;SDS011;14031;50.158;8.626;2024-01-30T10:35:08;20.03;;;15.17;;
16173;SDS011;14031;50.158;8.626;2024-01-30T10:37:35;24.00;;;14.23;;
16173;SDS011;14031;50.158;8.626;2024-01-30T10:40:03;17.67;;;14.20;;
16173;SDS011;14031;50.158;8.626;2024-01-30T10:42:38;23.40;;;14.67;;
16173;SDS011;14031;50.158;8.626;2024-01-30T10:45:10;16.73;;;14.07;;
16173;SDS011;14031;50.158;8.626;2024-01-30T10:47:43;18.17;;;14.03;;
16173;SDS011;14031;50.158;8.626;2024-01-30T10:50:15;16.17;;;13.13;;
16173;SDS011;14031;50.158;8.626;2024-01-30T10:52:44;19.47;;;13.70;;
16173;SDS011;14031;50.158;8.626;2024-01-30T10:55:12;17.20;;;14.30;;
16173;SDS011;14031;50.158;8.626;2024-01-30T10:57:44;19.73;;;13.47;;
16173;SDS011;14031;50.158;8.626;2024-01-30T11:00:13;19.70;;;14.40;;
16173;SDS011;14031;50.158;8.626;2024-01-30T11:02:42;16.60;;;13.90;;
16173;SDS011;14031;50.158;8.626;2024-01-30T11:05:22;17.53;;;13.83;;
16173;SDS011;14031;50.158;8.626;2024-01-30T11:08:12;14.60;;;13.03;;
16173;SDS011;14031;50.158;8.626;2024-01-30T11:10:46;18.40;;;13.90;;
16173;SDS011;14031;50.158;8.626;2024-01-30T11:13:13;15.90;;;13.83;;
16173;SDS011;14031;50.158;8.626;2024-01-30T11:15:42;17.03;;;13.60;;
16173;SDS011;14031;50.158;8.626;2024-01-30T11:18:23;19.73;;;14.33;;
16173;SDS011;14031;50.158;8.626;2024-01-30T11:20:53;19.30;;;14.07;;
16173;SDS011;14031;50.158;8.626;2024-01-30T11:23:23;17.30;;;14.27;;
16173;SDS011;14031;50.158;8.626;2024-01-30T11:25:55;24.97;;;14.80;;
16173;SDS011;14031;50.158;8.626;2024-01-30T11:28:23;20.90;;;14.97;;
16173;SDS011;14031;50.158;8.626;2024-01-30T11:30:50;18.70;;;14.97;;
16173;SDS011;14031;50.158;8.626;2024-01-30T11:33:28;20.17;;;14.83;;
16173;SDS011;14031;50.158;8.626;2024-01-30T11:35:58;17.30;;;13.33;;
16173;SDS011;14031;50.158;8.626;2024-01-30T11:38:28;17.67;;;13.90;;
16173;SDS011;14031;50.158;8.626;2024-01-30T11:40:57;17.13;;;13.57;;
16173;SDS011;14031;50.158;8.626;2024-01-30T11:43:24;15.67;;;13.13;;
16173;SDS011;14031;50.158;8.626;2024-01-30T11:45:51;18.90;;;14.13;;
16173;SDS011;14031;50.158;8.626;2024-01-30T11:48:19;16.73;;;14.30;;
16173;SDS011;14031;50.158;8.626;2024-01-30T11:51:07;20.00;;;15.20;;
16173;SDS011;14031;50.158;8.626;2024-01-30T11:53:43;18.67;;;15.13;;
16173;SDS011;14031;50.158;8.626;2024-01-30T11:56:12;21.87;;;14.13;;
16173;SDS011;14031;50.158;8.626;2024-01-30T11:58:55;19.73;;;14.67;;
16173;SDS011;14031;50.158;8.626;2024-01-30T12:01:30;17.73;;;14.97;;
16173;SDS011;14031;50.158;8.626;2024-01-30T12:07:26;17.10;;;13.23;;
16173;SDS011;14031;50.158;8.626;2024-01-30T12:09:57;23.47;;;14.13;;
16173;SDS011;14031;50.158;8.626;2024-01-30T12:12:36;21.03;;;12.97;;
16173;SDS011;14031;50.158;8.626;2024-01-30T12:15:03;18.77;;;13.43;;
16173;SDS011;14031;50.158;8.626;2024-01-30T12:19:21;18.30;;;13.13;;
16173;SDS011;14031;50.158;8.626;2024-01-30T12:22:00;18.47;;;13.23;;
16173;SDS011;14031;50.158;8.626;2024-01-30T12:27:07;22.10;;;13.70;;
16173;SDS011;14031;50.158;8.626;2024-01-30T12:29:57;17.80;;;13.60;;
16173;SDS011;14031;50.158;8.626;2024-01-30T12:39:24;20.57;;;14.03;;
16173;SDS011;14031;50.158;8.626;2024-01-30T12:45:38;17.37;;;13.97;;
16173;SDS011;14031;50.158;8.626;2024-01-30T12:48:05;16.47;;;14.40;;
16173;SDS011;14031;50.158;8.626;2024-01-30T12:50:33;20.83;;;13.77;;
16173;SDS011;14031;50.158;8.626;2024-01-30T12:52:59;22.80;;;14.80;;
16173;SDS011;14031;50.158;8.626;2024-01-30T12:55:26;20.87;;;13.57;;
16173;SDS011;14031;50.158;8.626;2024-01-30T12:57:53;16.87;;;12.77;;
16173;SDS011;14031;50.158;8.626;2024-01-30T13:00:20;14.67;;;12.30;;
16173;SDS011;14031;50.158;8.626;2024-01-30T13:02:48;24.50;;;12.20;;
16173;SDS011;14031;50.158;8.626;2024-01-30T13:05:15;15.70;;;11.93;;
16173;SDS011;14031;50.158;8.626;2024-01-30T13:07:42;14.60;;;12.33;;
16173;SDS011;14031;50.158;8.626;2024-01-30T13:10:09;17.37;;;12.63;;
16173;SDS011;14031;50.158;8.626;2024-01-30T13:12:36;21.57;;;12.33;;
16173;SDS011;14031;50.158;8.626;2024-01-30T13:15:03;14.63;;;12.37;;
16173;SDS011;14031;50.158;8.626;2024-01-30T13:17:31;16.57;;;12.57;;
16173;SDS011;14031;50.158;8.626;2024-01-30T13:19:59;14.47;;;12.73;;
16173;SDS011;14031;50.158;8.626;2024-01-30T13:22:26;14.60;;;11.80;;
16173;SDS011;14031;50.158;8.626;2024-01-30T13:24:53;16.67;;;12.30;;
16173;SDS011;14031;50.158;8.626;2024-01-30T13:27:20;23.63;;;12.30;;
16173;SDS011;14031;50.158;8.626;2024-01-30T13:29:47;13.17;;;11.27;;
16173;SDS011;14031;50.158;8.626;2024-01-30T13:32:13;14.17;;;12.07;;
16173;SDS011;14031;50.158;8.626;2024-01-30T13:34:40;18.57;;;13.17;;
16173;SDS011;14031;50.158;8.626;2024-01-30T13:37:09;18.40;;;12.77;;
16173;SDS011;14031;50.158;8.626;2024-01-30T13:39:35;15.63;;;11.97;;
16173;SDS011;14031;50.158;8.626;2024-01-30T13:42:02;19.50;;;12.43;;
16173;SDS011;14031;50.158;8.626;2024-01-30T13:44:29;17.53;;;13.00;;
16173;SDS011;14031;50.158;8.626;2024-01-30T13:46:56;14.93;;;12.00;;
16173;SDS011;14031;50.158;8.626;2024-01-30T13:49:23;17.77;;;12.30;;
16173;SDS011;14031;50.158;8.626;2024-01-30T13:51:50;12.60;;;11.40;;
16173;SDS011;14031;50.158;8.626;2024-01-30T13:54:18;15.10;;;12.30;;
16173;SDS011;14031;50.158;8.626;2024-01-30T13:56:44;17.17;;;12.03;;
16173;SDS011;14031;50.158;8.626;2024-01-30T13:59:11;15.47;;;12.33;;
16173;SDS011;14031;50.158;8.626;2024-01-30T14:01:38;19.00;;;13.07;;
16173;SDS011;14031;50.158;8.626;2024-01-30T14:04:05;14.10;;;11.83;;
16173;SDS011;14031;50.158;8.626;2024-01-30T14:06:31;19.53;;;12.63;;
16173;SDS011;14031;50.158;8.626;2024-01-30T14:08:58;13.20;;;11.83;;
16173;SDS011;14031;50.158;8.626;2024-01-30T14:11:26;18.73;;;13.20;;
16173;SDS011;14031;50.158;8.626;2024-01-30T14:13:53;14.70;;;13.20;;
16173;SDS011;14031;50.158;8.626;2024-01-30T14:16:20;17.00;;;13.80;;
16173;SDS011;14031;50.158;8.626;2024-01-30T14:18:47;17.67;;;13.23;;
16173;SDS011;14031;50.158;8.626;2024-01-30T14:21:14;13.57;;;12.07;;
16173;SDS011;14031;50.158;8.626;2024-01-30T14:23:41;16.33;;;13.83;;
16173;SDS011;14031;50.158;8.626;2024-01-30T14:26:07;16.40;;;12.83;;
16173;SDS011;14031;50.158;8.626;2024-01-30T14:28:35;13.27;;;11.83;;
16173;SDS011;14031;50.158;8.626;2024-01-30T14:31:02;14.03;;;12.60;;
16173;SDS011;14031;50.158;8.626;2024-01-30T14:33:30;18.13;;;12.33;;
16173;SDS011;14031;50.158;8.626;2024-01-30T14:35:57;15.73;;;13.13;;
16173;SDS011;14031;50.158;8.626;2024-01-30T14:38:23;14.37;;;12.33;;
16173;SDS011;14031;50.158;8.626;2024-01-30T14:40:51;18.77;;;12.00;;
16173;SDS011;14031;50.158;8.626;2024-01-30T14:43:17;14.50;;;12.00;;
16173;SDS011;14031;50.158;8.626;2024-01-30T14:45:46;13.77;;;12.27;;
16173;SDS011;14031;50.158;8.626;2024-01-30T14:48:14;17.00;;;11.37;;
16173;SDS011;14031;50.158;8.626;2024-01-30T14:50:41;16.93;;;12.13;;
16173;SDS011;14031;50.158;8.626;2024-01-30T14:53:08;15.43;;;11.70;;
16173;SDS011;14031;50.158;8.626;2024-01-30T14:55:34;13.00;;;11.77;;